createdAt,value
2018-11-11T18:34:30.472Z,3.33
2018-11-11T18:36:38.520Z,6.33
2018-11-11T18:38:45.787Z,8.27
2018-11-11T18:40:53.272Z,9.00
2018-11-11T18:43:00.284Z,10.37
2018-11-11T18:45:07.992Z,8.67
2018-11-11T18:47:15.404Z,8.47
2018-11-11T18:49:22.125Z,8.83
2018-11-11T18:51:28.883Z,8.97
2018-11-11T18:53:35.640Z,8.00
2018-11-11T18:55:42.476Z,8.53
2018-11-11T18:57:49.431Z,7.53
2018-11-11T18:59:57.004Z,7.07
2018-11-11T19:02:03.776Z,7.60
2018-11-11T19:04:10.656Z,6.63
2018-11-11T19:06:17.499Z,6.70
2018-11-11T19:08:24.296Z,6.37
2018-11-11T19:10:32.554Z,6.23
2018-11-11T19:12:39.498Z,5.50
2018-11-11T19:14:46.230Z,6.27
2018-11-11T19:16:53.043Z,5.77
2018-11-11T19:18:59.750Z,5.43
2018-11-11T19:21:07.378Z,5.00
2018-11-11T19:23:14.545Z,5.40
2018-11-11T19:25:22.557Z,6.07
2018-11-11T19:27:29.552Z,4.73
2018-11-11T19:29:36.558Z,4.83
2018-11-11T19:31:43.489Z,6.07
2018-11-11T19:33:50.536Z,4.63
2018-11-11T19:35:57.514Z,5.20
2018-11-11T19:38:04.484Z,4.87
2018-11-11T19:40:14.225Z,5.30
2018-11-11T19:42:21.128Z,4.63
2018-11-11T19:44:28.018Z,4.93
2018-11-11T19:46:34.911Z,5.10
2018-11-11T19:48:41.879Z,5.10
2018-11-11T19:50:48.176Z,5.23
2018-11-11T19:52:56.128Z,4.30
2018-11-11T19:55:03.238Z,4.43
2018-11-11T19:57:10.422Z,4.87
2018-11-11T20:05:56.210Z,4.40
2018-11-11T20:08:03.440Z,5.17
2018-11-11T20:10:15.362Z,4.47
2018-11-11T20:12:22.423Z,4.40
2018-11-11T20:14:29.504Z,4.33
2018-11-11T20:16:36.326Z,4.47
2018-11-11T20:18:43.296Z,3.37
2018-11-11T20:20:50.029Z,4.87
2018-11-11T20:22:56.569Z,3.60
2018-11-11T20:25:03.368Z,3.70
2018-11-11T20:27:10.360Z,4.20
2018-11-11T20:29:17.021Z,4.17
2018-11-11T20:31:24.174Z,4.50
2018-11-11T20:33:30.840Z,3.57
2018-11-11T20:42:03.520Z,4.17
2018-11-11T20:44:10.836Z,3.50
2018-11-11T20:46:17.626Z,3.27
2018-11-11T20:48:24.716Z,3.27
2018-11-11T20:50:32.984Z,3.73
2018-11-11T20:52:40.039Z,3.27
